Revelstoke Airport

CYRV | YRV

Revelstoke , British Columbia , Canada

Sunday, January 26th, 2020 | 16:02

Weather

CYRV 262357Z AUTO 04002KT 3SM BR OVC010 01/01 A2996 RMK SLP165

Charts

No Charts Available

Gates

10 Available

Runways

1 Available

Events

No events for this airport


New event